• Join FlightAware (Why Join?)
  • Login
  • US Flag 
03:43AM EDT


 

Airport Tracker/Info


-or-


 

Live Flight TrackerFlight Track Log ✈ ASA123 ✈ 15-Oct-2013 ✈ KSEA - PAFA / FAI

Flight Track Log - Related Links

Times and Time Zones

All times are in EDT time to prevent confusion due to time zone crossing. See the ASA123 flight status page for this flight to view local times or setup timezone preferences in your user account.

Time Position Orientation Groundspeed Altitude Reporting Facility
EDT Latitude Longitude Course Direction KTS MPH feet Rate Location/Type
04:34PM 47.4306 -122.3097 326° Northwest 167 192 1,300  Level Seattle Center
04:35PM 47.3622 -122.3114 181° South 222 255 3,600 1,860 Climbing Seattle Center
04:36PM 47.3531 -122.3100 174° South 215 247 4,000 2,100 Climbing Seattle Center
04:37PM 47.3119 -122.3939 234° Southwest 267 307 6,200 1,980 Climbing Seattle Center
04:38PM 47.3294 -122.5008 284° West 278 320 8,100 1,800 Climbing Seattle Center
04:39PM 47.3850 -122.5794 316° Northwest 278 320 9,900 1,860 Climbing Seattle Center
04:40PM 48.0402 -122.8049 326° Northwest  Level Estimated
04:40PM 47.4489 -122.6636 318° Northwest 309 356 12,000  Level Seattle Center
04:41PM 47.5192 -122.7511 320° Northwest 330 380 15,100 2,760 Climbing Seattle Center
04:42PM 47.6044 -122.8242 330° Northwest 339 390 17,700 2,400 Climbing Seattle Center
04:43PM 47.6903 -122.8989 330° Northwest 349 402 20,000 1,620 Climbing Seattle Center
04:44PM 47.7797 -122.9775 329° Northwest 365 420 21,000 1,500 Climbing Seattle Center
04:45PM 47.8686 -123.0564 329° Northwest 369 425 23,100 1,920 Climbing Seattle Center
04:46PM 47.9586 -123.1353 330° Northwest 372 428 25,000 1,800 Climbing Seattle Center
04:47PM 48.0522 -123.2197 329° Northwest 381 438 26,800 1,740 Climbing Seattle Center
04:48PM 48.1333 -123.3000 327° Northwest 400 460 28,500 1,620 Climbing Vancouver Center
04:49PM 48.2333 -123.4000 326° Northwest 410 472 30,000 1,440 Climbing Vancouver Center
04:50PM 48.3333 -123.4667 336° Northwest 420 483 31,400 1,440 Climbing Vancouver Center
04:51PM 48.4333 -123.5667 326° Northwest 430 495 32,900 1,560 Climbing Vancouver Center
04:52PM 48.5333 -123.6667 326° Northwest 430 495 34,600 1,740 Climbing Vancouver Center
04:53PM 48.6333 -123.7667 327° Northwest 420 483 36,400 1,320 Climbing Vancouver Center
04:54PM 48.7333 -123.8500 331° Northwest 410 472 37,300 660 Climbing Vancouver Center
04:55PM 48.8167 -123.9333 327° Northwest 420 483 37,800 300 Climbing Vancouver Center
04:56PM 48.9333 -124.0333 331° Northwest 420 483 38,000 60 Climbing Vancouver Center
04:57PM 49.0333 -124.1333 327° Northwest 430 495 38,000  Level Vancouver Center
04:58PM 49.1333 -124.2333 327° Northwest 420 483 38,000  Level Vancouver Center
04:59PM 49.2333 -124.3167 331° Northwest 420 483 38,000  Level Vancouver Center
05:00PM 49.3167 -124.4167 322° Northwest 420 483 38,000  Level Vancouver Center
05:01PM 49.4333 -124.5167 331° Northwest 420 483 38,000  Level Vancouver Center
05:02PM 49.5333 -124.6000 332° Northwest 420 483 38,000  Level Vancouver Center
05:03PM 49.6333 -124.7000 327° Northwest 420 483 38,000  Level Vancouver Center
05:04PM 49.7333 -124.8000 327° Northwest 420 483 38,000  Level Vancouver Center
05:05PM 49.8333 -124.8833 332° Northwest 420 483 38,000  Level Vancouver Center
05:06PM 49.9333 -125.0000 323° Northwest 420 483 38,000  Level Vancouver Center
05:07PM 50.0333 -125.1000 327° Northwest 430 495 38,000  Level Vancouver Center
05:08PM 50.1333 -125.1833 332° Northwest 430 495 38,000  Level Vancouver Center
05:09PM 50.2333 -125.2833 327° Northwest 430 495 38,000  Level Vancouver Center
05:10PM 50.3333 -125.4000 323° Northwest 420 483 38,000  Level Vancouver Center
05:11PM 50.4333 -125.4833 332° Northwest 420 483 38,000  Level Vancouver Center
05:12PM 50.5333 -125.5833 328° Northwest 420 483 38,000  Level Vancouver Center
05:13PM 50.6333 -125.7000 324° Northwest 420 483 38,000  Level Vancouver Center
05:14PM 50.7167 -125.7833 328° Northwest 420 483 38,000  Level Vancouver Center
05:15PM 50.8167 -125.8833 328° Northwest 410 472 38,000  Level Vancouver Center
05:16PM 50.9167 -125.9667 332° Northwest 410 472 38,000  Level Vancouver Center
05:17PM 51.0167 -126.0833 324° Northwest 410 472 38,000  Level Vancouver Center
05:18PM 51.1000 -126.1667 328° Northwest 410 472 38,000  Level Vancouver Center
05:19PM 51.2000 -126.2833 324° Northwest 410 472 38,000  Level Vancouver Center
05:20PM 51.3000 -126.3667 332° Northwest 410 472 38,000  Level Vancouver Center
05:21PM 51.4000 -126.4667 328° Northwest 410 472 38,000  Level Vancouver Center
05:22PM 51.5000 -126.5833 324° Northwest 420 483 38,000  Level Vancouver Center
05:23PM 51.5667 -126.6667 322° Northwest 420 483 38,000  Level Vancouver Center
05:24PM 51.6833 -126.7833 328° Northwest 420 483 38,000  Level Vancouver Center
05:25PM 51.7667 -126.8667 328° Northwest 420 483 38,000  Level Vancouver Center
05:26PM 51.8833 -126.9833 328° Northwest 420 483 38,000  Level Vancouver Center
05:27PM 51.9833 -127.1000 324° Northwest 430 495 38,000  Level Vancouver Center
05:28PM 52.0833 -127.2167 324° Northwest 420 483 38,000  Level Vancouver Center
05:29PM 52.1833 -127.3167 328° Northwest 420 483 38,000  Level Vancouver Center
05:30PM 52.2500 -127.4333 313° West 420 483 38,000  Level Vancouver Center
05:31PM 52.3500 -127.5167 333° Northwest 410 472 38,000  Level Vancouver Center
05:32PM 52.4500 -127.6333 325° Northwest 410 472 38,000  Level Vancouver Center
05:33PM 52.5500 -127.7500 325° Northwest 410 472 38,000  Level Vancouver Center
05:34PM 52.6500 -127.8500 329° Northwest 410 472 38,000  Level Vancouver Center
05:35PM 52.7333 -127.9667 320° Northwest 410 472 38,000  Level Vancouver Center
05:36PM 52.8167 -128.0500 329° Northwest 400 460 38,000  Level Vancouver Center
05:37PM 52.9167 -128.1667 325° Northwest 400 460 38,000  Level Vancouver Center
05:38PM 53.0167 -128.2667 329° Northwest 410 472 38,000  Level Vancouver Center
05:39PM 53.1167 -128.3667 329° Northwest 400 460 38,000  Level Vancouver Center
05:40PM 53.2000 -128.4833 320° Northwest 400 460 38,000  Level Vancouver Center
05:41PM 53.2833 -128.5667 329° Northwest 400 460 38,000  Level Vancouver Center
05:42PM 53.3833 -128.7000 322° Northwest 400 460 38,000  Level Vancouver Center
05:43PM 53.4833 -128.7833 334° Northwest 400 460 38,000  Level Vancouver Center
05:44PM 53.5500 -128.9167 310° West 400 460 38,000  Level Vancouver Center
05:45PM 53.6500 -129.0167 329° Northwest 400 460 38,000  Level Vancouver Center
05:46PM 53.7500 -129.1333 325° Northwest 400 460 38,000  Level Vancouver Center
05:47PM 53.8500 -129.2333 329° Northwest 410 472 38,000  Level Vancouver Center
05:48PM 53.9167 -129.3500 314° West 400 460 38,000  Level Vancouver Center
05:49PM 54.0167 -129.4500 330° Northwest 400 460 38,000  Level Vancouver Center
05:50PM 54.1167 -129.5833 322° Northwest 400 460 38,000  Level Vancouver Center
05:51PM 54.2000 -129.6833 325° Northwest 390 449 38,000  Level Vancouver Center
05:52PM 54.2833 -129.8000 321° Northwest 380 437 38,000  Level Vancouver Center
05:53PM 54.3667 -129.9000 325° Northwest 380 437 38,000  Level Vancouver Center
05:54PM 54.4667 -130.0000 330° Northwest 380 437 38,000  Level Vancouver Center
05:55PM 54.5333 -130.1333 311° West 380 437 38,000  Level Vancouver Center
05:56PM 54.6167 -130.2333 325° Northwest 380 437 38,000  Level Vancouver Center
05:57PM 54.7167 -130.3333 330° Northwest 380 437 38,000  Level Vancouver Center
05:58PM 54.7833 -130.4333 319° Northwest 380 437 38,000  Level Vancouver Center
05:59PM 54.8833 -130.5500 326° Northwest 380 437 38,000  Level Vancouver Center
06:00PM 54.9667 -130.6667 321° Northwest 390 449 38,000  Level Vancouver Center
06:01PM 55.0500 -130.7667 326° Northwest 380 437 38,000  Level Vancouver Center
06:02PM 55.1333 -130.9000 318° Northwest 390 449 38,000  Level Vancouver Center
06:03PM 55.2167 -131.0000 326° Northwest 380 437 38,000  Level Vancouver Center
06:04PM 55.3000 -131.1000 326° Northwest 380 437 38,000  Level Vancouver Center
06:05PM 55.4000 -131.2333 323° Northwest 380 437 38,000  Level Vancouver Center
06:06PM 55.4667 -131.3333 320° Northwest 390 449 38,000  Level Vancouver Center
06:07PM 55.5667 -131.4500 327° Northwest 390 449 38,000  Level Vancouver Center
06:08PM 55.6500 -131.5833 318° Northwest 390 449 38,000  Level Vancouver Center
06:09PM 55.7333 -131.6833 326° Northwest 390 449 38,000  Level Vancouver Center
06:10PM 55.8167 -131.7833 326° Northwest 390 449 38,000  Level Vancouver Center
06:11PM 55.9000 -131.9333 315° West 390 449 38,000  Level Vancouver Center
06:12PM 55.9833 -132.0333 326° Northwest 390 449 38,000  Level Vancouver Center
06:13PM 56.0833 -132.1333 331° Northwest 380 437 38,000  Level Vancouver Center
06:14PM 56.1500 -132.2833 309° West 390 449 38,000  Level Vancouver Center
06:15PM 56.2500 -132.3833 331° Northwest 380 437 38,000  Level Vancouver Center
06:16PM 56.3167 -132.5167 312° West 380 437 38,000  Level Vancouver Center
06:17PM 56.4167 -132.6333 327° Northwest 370 426 38,000  Level Vancouver Center
06:18PM 56.4833 -132.7500 316° Northwest 380 437 38,000  Level Vancouver Center
06:19PM 56.5833 -132.8500 331° Northwest 380 437 38,000  Level Vancouver Center
06:20PM 56.6500 -133.0000 309° West 390 449 38,000  Level Vancouver Center
06:21PM 56.7333 -133.0833 331° Northwest 390 449 38,000  Level Vancouver Center
06:22PM 56.8167 -133.2167 319° Northwest 390 449 38,000  Level Vancouver Center
06:23PM 56.9000 -133.3333 323° Northwest 390 449 38,000  Level Vancouver Center
06:24PM 56.9833 -133.4833 316° Northwest 390 449 38,000  Level Vancouver Center
06:25PM 57.0667 -133.5833 327° Northwest 390 449 38,000  Level Vancouver Center
06:26PM 57.1500 -133.7000 323° Northwest 390 449 38,000  Level Vancouver Center
06:27PM 57.2333 -133.8500 316° Northwest 390 449 38,000  Level Vancouver Center
06:28PM 57.3167 -133.9667 323° Northwest 390 449 38,000  Level Vancouver Center
06:29PM 57.4000 -134.0833 323° Northwest 390 449 38,000  Level Vancouver Center
06:30PM 57.4833 -134.2000 323° Northwest 390 449 38,000  Level Vancouver Center
06:31PM 57.5500 -134.3333 313° West 380 437 38,000  Level Vancouver Center
06:31PM 57.6000 -134.3500 350° North 380 437 38,000  Level Anchorage Center
06:32PM 57.6833 -134.4833 319° Northwest 380 437 38,000  Level Anchorage Center
06:33PM 57.7667 -134.6000 323° Northwest 380 437 38,000  Level Anchorage Center
06:34PM 57.8500 -134.7333 320° Northwest 380 437 38,000  Level Anchorage Center
06:35PM 57.9333 -134.8500 323° Northwest 370 426 38,000  Level Anchorage Center
06:36PM 58.0000 -134.9833 313° West 380 437 38,000  Level Anchorage Center
06:37PM 58.0833 -135.1167 320° Northwest 370 426 38,000  Level Anchorage Center
06:38PM 58.1667 -135.2333 324° Northwest 380 437 38,000  Level Anchorage Center
06:39PM 58.2500 -135.3333 328° Northwest 370 426 38,000  Level Anchorage Center
06:40PM 58.3500 -135.4333 332° Northwest 380 437 38,000  Level Anchorage Center
06:41PM 58.4333 -135.5333 328° Northwest 370 426 38,000  Level Anchorage Center
06:42PM 58.5333 -135.6333 332° Northwest 380 437 38,000  Level Anchorage Center
06:43PM 58.6167 -135.7333 328° Northwest 380 437 38,000  Level Anchorage Center
06:44PM 58.7167 -135.8333 333° Northwest 370 426 38,000  Level Anchorage Center
06:45PM 58.8000 -135.9333 328° Northwest 370 426 38,000  Level Anchorage Center
06:46PM 58.9000 -136.0500 329° Northwest 370 426 38,000  Level Anchorage Center
06:47PM 59.0000 -136.1500 333° Northwest 390 449 38,000  Level Anchorage Center
06:48PM 59.0833 -136.2500 328° Northwest 380 437 38,000  Level Anchorage Center
06:49PM 59.1667 -136.3500 328° Northwest 380 437 38,000  Level Anchorage Center
06:50PM 59.2667 -136.4500 333° Northwest 370 426 38,000  Level Anchorage Center
06:51PM 59.3500 -136.5500 329° Northwest 380 437 38,000  Level Anchorage Center
06:52PM 59.4500 -136.6667 329° Northwest 390 449 38,000  Level Anchorage Center
06:53PM 59.5333 -136.7667 329° Northwest 380 437 38,000  Level Anchorage Center
06:54PM 59.6333 -136.8667 333° Northwest 370 426 38,000  Level Anchorage Center
06:55PM 59.7167 -136.9833 325° Northwest 390 449 38,000  Level Anchorage Center
06:56PM 59.8167 -137.0833 333° Northwest 390 449 38,000  Level Anchorage Center
06:57PM 59.9000 -137.2000 325° Northwest 380 437 38,000  Level Anchorage Center
06:58PM 59.9833 -137.3000 329° Northwest 370 426 38,000  Level Anchorage Center
06:59PM 60.0833 -137.4000 334° Northwest 380 437 38,000  Level Anchorage Center
07:00PM 60.1667 -137.5167 325° Northwest 380 437 38,000  Level Anchorage Center
07:01PM 60.2667 -137.6167 334° Northwest 380 437 38,000  Level Anchorage Center
07:02PM 60.3500 -137.7333 325° Northwest 370 426 38,000  Level Anchorage Center
07:03PM 60.4333 -137.8333 329° Northwest 370 426 38,000  Level Anchorage Center
07:04PM 60.5333 -137.9500 330° Northwest 380 437 38,000  Level Anchorage Center
07:05PM 60.6167 -138.0667 326° Northwest 390 449 38,000  Level Anchorage Center
07:06PM 60.7167 -138.1833 330° Northwest 380 437 38,000  Level Anchorage Center
07:07PM 60.8000 -138.3000 326° Northwest 390 449 38,000  Level Anchorage Center
07:08PM 60.9000 -138.4167 330° Northwest 380 437 38,000  Level Anchorage Center
07:09PM 60.9833 -138.5333 326° Northwest 390 449 38,000  Level Anchorage Center
07:10PM 61.0667 -138.6500 326° Northwest 380 437 38,000  Level Anchorage Center
07:11PM 61.1667 -138.7500 334° Northwest 380 437 38,000  Level Anchorage Center
07:12PM 61.2500 -138.8833 322° Northwest 380 437 38,000  Level Anchorage Center
07:13PM 61.3333 -139.0000 326° Northwest 380 437 38,000  Level Anchorage Center
07:14PM 61.4167 -139.1333 323° Northwest 380 437 38,000  Level Anchorage Center
07:16PM 61.5000 -139.2667 323° Northwest 380 437 38,000  Level Anchorage Center
07:17PM 61.5833 -139.4167 319° Northwest 380 437 38,000  Level Anchorage Center
07:19PM 61.6654 -139.5586 321° Northwest  Level FlightAware Approximate
07:19PM 61.8167 -139.8333 321° Northwest 360 414 38,000  Level Anchorage Center
07:21PM 61.9040 -139.9862 321° Northwest  Level FlightAware Approximate
07:28PM 62.4729 -141.0118 319° Northwest  Level FlightAware Approximate
07:28PM 62.5000 -141.0500 318° Northwest 410 472 38,000  Level Anchorage Center
07:29PM 62.5528 -141.1633 319° Northwest  Level FlightAware Approximate
07:29PM 62.5667 -141.2000 314° West 350 403 38,000  Level Anchorage Center
07:30PM 62.6326 -141.3156 319° Northwest  Level FlightAware Approximate
07:30PM 62.6500 -141.3500 320° Northwest 380 437 38,000  Level Anchorage Center
07:31PM 62.7122 -141.4686 319° Northwest  Level FlightAware Approximate
07:31PM 62.7333 -141.5000 321° Northwest 370 426 38,000  Level Anchorage Center
07:32PM 62.7917 -141.6226 318° Northwest  Level FlightAware Approximate
07:32PM 62.8167 -141.6333 324° Northwest 380 437 38,000  Level Anchorage Center
07:33PM 62.8709 -141.7773 318° Northwest  Level FlightAware Approximate
07:33PM 62.8833 -141.8000 311° West 350 403 38,000  Level Anchorage Center
07:34PM 62.9500 -141.9667 311° West 370 426 38,000  Level Anchorage Center
07:35PM 63.0167 -142.1500 309° West 360 414 38,000  Level Anchorage Center
07:36PM 63.0833 -142.3333 309° West 370 426 38,000  Level Anchorage Center
07:37PM 63.1500 -142.5000 312° West 360 414 38,000  Level Anchorage Center
07:38PM 63.2000 -142.7000 299° West 370 426 38,000  Level Anchorage Center
07:39PM 63.2667 -142.8667 312° West 360 414 38,000  Level Anchorage Center
07:40PM 63.3333 -143.0500 309° West 380 437 38,000  Level Anchorage Center
07:41PM 63.3833 -143.2333 301° West 370 426 38,000  Level Anchorage Center
07:42PM 63.4500 -143.4167 309° West 350 403 38,000  Level Anchorage Center
07:43PM 63.5000 -143.6167 299° West 370 426 38,000  Level Anchorage Center
07:44PM 63.5667 -143.8000 309° West 370 426 38,000  Level Anchorage Center
07:45PM 63.6167 -143.9833 302° West 380 437 38,000  Level Anchorage Center
07:46PM 63.6833 -144.1667 309° West 370 426 38,000  Level Anchorage Center
07:47PM 63.7500 -144.3667 307° West 380 437 38,000 -180 Level Anchorage Center
07:48PM 63.8000 -144.5500 302° West 370 426 37,700 -600 Descending Anchorage Center
07:49PM 63.8667 -144.7500 307° West 350 403 36,800 -960 Descending Anchorage Center
07:50PM 63.9333 -144.9500 307° West 360 414 35,800 -1,020 Descending Anchorage Center
07:51PM 63.9833 -145.1333 302° West 350 403 34,800 -1,020 Descending Anchorage Center
07:52PM 64.0500 -145.3333 307° West 350 403 33,800 -1,560 Descending Anchorage Center
07:53PM 64.1000 -145.5000 305° West 350 403 31,700 -2,100 Descending Anchorage Center
07:54PM 64.1500 -145.6833 302° West 340 391 29,600 -2,160 Descending Anchorage Center
07:55PM 64.2000 -145.8667 302° West 350 403 27,400 -2,160 Descending Anchorage Center
07:56PM 64.2500 -146.0500 302° West 340 391 25,300 -2,100 Descending Anchorage Center
07:58PM 64.3298 -146.3061 303° West  Level FlightAware Approximate
08:05PM 64.6195 -147.8045 253° West  Level FlightAware Approximate
08:06PM 64.6058 -147.9554 12° North  Level FlightAware Approximate
08:07PM 64.7094 -147.8996 10° North  Level FlightAware Approximate
08:08PM 64.8000 -147.8500 16° North  Level FlightAware Approximate
08:09PM 64.8151 -147.8564 16° North  Level Estimated
08:10PM 64.8151 -147.8564 16° North  Level Estimated
08:11PM 64.8151 -147.8564 16° North  Level Estimated
08:12PM 64.8151 -147.8564 16° North  Level Estimated
08:13PM 64.8151 -147.8564 16° North  Level Estimated
08:14PM 64.8151 -147.8564 16° North  Level Estimated
08:15PM 64.8151 -147.8564 16° North  Level Estimated
08:16PM 64.8151 -147.8564 16° North  Level Estimated
08:17PM 64.8151 -147.8564 16° North  Level Estimated
08:18PM 64.8151 -147.8564 16° North  Level Estimated
08:19PM 64.8151 -147.8564 16° North  Level Estimated
08:20PM 64.8151 -147.8564 16° North  Level Estimated
08:21PM 64.8151 -147.8564 16° North  Level Estimated
08:22PM 64.8151 -147.8564 16° North  Level Estimated